createdAt,value
2022-07-30T00:03:25.167Z,999.90
2022-07-30T00:18:25.224Z,485.40
2022-07-30T00:33:25.958Z,740.00
2022-07-30T00:48:26.642Z,676.70
2022-07-30T01:03:26.732Z,999.90
2022-07-30T01:18:27.343Z,552.10
2022-07-30T01:33:27.650Z,640.80
2022-07-30T01:48:27.850Z,540.50
2022-07-30T02:03:29.101Z,418.90
2022-07-30T02:18:29.550Z,215.70
2022-07-30T02:33:29.298Z,237.20
2022-07-30T02:48:34.834Z,161.80
2022-07-30T03:03:34.694Z,129.90
2022-07-30T03:18:35.218Z,186.60
2022-07-30T03:33:38.726Z,121.30
2022-07-30T03:48:39.335Z,137.70
2022-07-30T04:03:39.549Z,78.80
2022-07-30T04:18:39.669Z,69.50
2022-07-30T04:33:39.868Z,38.60
2022-07-30T04:48:40.114Z,23.60
2022-07-30T05:03:41.100Z,36.00
2022-07-30T05:18:41.432Z,21.60
2022-07-30T05:33:42.505Z,25.00
2022-07-30T05:48:44.292Z,19.00
2022-07-30T06:03:44.472Z,16.20
2022-07-30T06:18:44.670Z,24.80
2022-07-30T06:33:44.907Z,32.70
2022-07-30T06:48:45.024Z,28.60
2022-07-30T07:03:45.186Z,32.30
2022-07-30T07:18:45.567Z,74.40
2022-07-30T07:33:45.761Z,186.70
2022-07-30T07:48:45.822Z,629.00
2022-07-30T08:03:46.510Z,999.90
2022-07-30T08:18:47.259Z,436.50
2022-07-30T08:33:47.447Z,698.50
2022-07-30T08:48:47.691Z,390.80
2022-07-30T09:03:48.246Z,999.90
2022-07-30T09:18:48.112Z,999.90
2022-07-30T09:33:48.313Z,999.90
2022-07-30T09:48:48.696Z,999.90
2022-07-30T10:03:48.773Z,999.90
2022-07-30T10:18:48.963Z,999.90
2022-07-30T10:33:50.539Z,177.70
2022-07-30T10:48:52.131Z,14.10
2022-07-30T11:03:53.925Z,7.10
2022-07-30T11:19:27.242Z,4.70
2022-07-30T11:34:02.206Z,11.50
2022-07-30T11:49:03.034Z,71.00
2022-07-30T12:04:03.707Z,416.30
2022-07-30T12:19:03.852Z,767.90
2022-07-30T12:34:04.496Z,415.10
2022-07-30T12:49:13.424Z,529.10
2022-07-30T13:04:09.887Z,483.20
2022-07-30T13:19:09.976Z,541.70
2022-07-30T13:34:10.243Z,398.10
2022-07-30T13:49:10.530Z,667.60
2022-07-30T14:04:10.668Z,949.80
2022-07-30T14:19:22.577Z,418.40
2022-07-30T14:34:16.545Z,613.40
2022-07-30T14:49:16.697Z,999.90
2022-07-30T15:04:17.238Z,916.10
2022-07-30T15:19:17.392Z,999.90
2022-07-30T15:34:18.038Z,999.90
2022-07-30T15:49:18.210Z,999.90
2022-07-30T16:04:20.009Z,521.10
2022-07-30T16:19:20.533Z,999.90
2022-07-30T16:34:22.974Z,969.40
2022-07-30T16:49:25.969Z,970.10
2022-07-30T17:04:26.862Z,922.70
2022-07-30T17:19:27.484Z,527.40
2022-07-30T17:34:28.438Z,939.80
2022-07-30T17:49:28.781Z,250.90
2022-07-30T18:04:32.202Z,238.30
2022-07-30T18:19:33.578Z,85.10
2022-07-30T18:34:34.331Z,34.00
2022-07-30T18:49:37.038Z,20.50
2022-07-30T19:04:38.365Z,12.90
2022-07-30T19:19:40.439Z,721.70
2022-07-30T19:34:40.830Z,694.60
2022-07-30T19:49:42.327Z,999.90
2022-07-30T20:04:44.220Z,999.90
2022-07-30T20:19:48.022Z,999.90
2022-07-30T20:34:49.536Z,466.40
2022-07-30T20:49:51.559Z,306.10
2022-07-30T21:04:54.733Z,148.70
2022-07-30T21:19:57.993Z,56.50
2022-07-30T21:34:59.174Z,40.60
2022-07-30T21:50:00.378Z,18.40
2022-07-30T22:05:00.985Z,20.30
2022-07-30T22:20:02.253Z,20.20
2022-07-30T22:35:02.893Z,18.20
2022-07-30T22:50:03.622Z,11.60
2022-07-30T23:05:04.188Z,10.90
2022-07-30T23:20:05.438Z,7.70
2022-07-30T23:35:06.617Z,45.50
2022-07-30T23:50:08.157Z,18.30
